createdAt,value
2022-09-24T00:01:34.634Z,2.03
2022-09-24T00:04:04.824Z,0.83
2022-09-24T00:06:36.481Z,1.53
2022-09-24T00:09:04.171Z,1.00
2022-09-24T00:11:32.055Z,1.20
2022-09-24T00:13:58.971Z,1.27
2022-09-24T00:16:27.423Z,0.90
2022-09-24T00:18:54.651Z,1.60
2022-09-24T00:21:24.192Z,1.50
2022-09-24T00:23:53.413Z,1.90
2022-09-24T00:26:39.223Z,1.10
2022-09-24T00:29:06.657Z,1.00
2022-09-24T00:31:33.040Z,0.93
2022-09-24T00:34:00.868Z,0.93
2022-09-24T00:36:27.395Z,1.60
2022-09-24T00:38:56.120Z,1.67
2022-09-24T00:41:25.800Z,1.10
2022-09-24T00:43:52.313Z,2.57
2022-09-24T00:46:40.346Z,0.97
2022-09-24T00:49:18.680Z,1.30
2022-09-24T00:51:48.789Z,0.70
2022-09-24T00:54:22.517Z,1.07
2022-09-24T00:56:51.092Z,1.10
2022-09-24T00:59:23.029Z,1.57
2022-09-24T01:01:51.788Z,1.00
2022-09-24T01:04:22.889Z,1.40
2022-09-24T01:06:50.107Z,1.10
2022-09-24T01:09:19.038Z,1.07
2022-09-24T01:11:45.327Z,1.10
2022-09-24T01:14:46.536Z,0.97
2022-09-24T01:17:25.043Z,0.90
2022-09-24T01:20:26.101Z,2.90
2022-09-24T01:23:03.188Z,1.03
2022-09-24T01:26:07.991Z,1.07
2022-09-24T01:28:43.257Z,1.27
2022-09-24T01:31:24.742Z,1.57
2022-09-24T01:33:54.066Z,1.20
2022-09-24T01:36:22.584Z,0.90
2022-09-24T01:38:52.681Z,1.40
2022-09-24T01:41:20.561Z,0.70
2022-09-24T01:43:48.374Z,0.87
2022-09-24T01:46:19.756Z,0.80
2022-09-24T01:48:46.602Z,0.87
2022-09-24T01:51:27.585Z,1.33
2022-09-24T01:54:02.568Z,0.50
2022-09-24T01:56:51.476Z,0.90
2022-09-24T01:59:37.781Z,1.00
2022-09-24T02:02:23.244Z,0.83
2022-09-24T02:04:57.538Z,0.60
2022-09-24T02:07:33.507Z,0.90
2022-09-24T02:09:59.873Z,1.03
2022-09-24T02:12:39.847Z,0.90
2022-09-24T02:15:17.390Z,0.93
2022-09-24T02:17:48.338Z,0.97
2022-09-24T02:20:21.666Z,1.57
2022-09-24T02:22:49.881Z,0.80
2022-09-24T02:25:22.142Z,1.20
2022-09-24T02:27:48.542Z,1.23
2022-09-24T02:30:15.120Z,1.27
2022-09-24T02:32:42.626Z,1.43
2022-09-24T02:35:11.315Z,1.60
2022-09-24T02:37:40.527Z,0.60
2022-09-24T02:40:09.481Z,0.80
2022-09-24T02:42:36.326Z,1.50
2022-09-24T02:45:04.446Z,1.73
2022-09-24T02:47:30.982Z,0.63
2022-09-24T02:49:57.349Z,0.53
2022-09-24T02:52:23.808Z,0.47
2022-09-24T02:54:50.581Z,0.53
2022-09-24T02:57:18.477Z,1.30
2022-09-24T02:59:45.708Z,1.23
2022-09-24T03:02:12.499Z,0.90
2022-09-24T03:04:39.147Z,1.70
2022-09-24T03:07:05.546Z,0.93
2022-09-24T03:09:31.900Z,0.60
2022-09-24T03:12:00.526Z,0.77
2022-09-24T03:14:27.712Z,1.17
2022-09-24T03:16:54.113Z,2.00
2022-09-24T03:19:20.457Z,0.67
2022-09-24T03:21:47.169Z,0.50
2022-09-24T03:24:13.508Z,1.20
2022-09-24T03:26:40.075Z,0.90
2022-09-24T03:29:06.407Z,0.60
2022-09-24T03:31:32.976Z,0.70
2022-09-24T03:33:59.489Z,1.67
2022-09-24T03:36:26.908Z,1.43
2022-09-24T03:38:56.183Z,0.97
2022-09-24T03:41:24.545Z,0.83
2022-09-24T03:43:50.959Z,1.10
2022-09-24T03:46:17.453Z,1.23
2022-09-24T03:48:44.188Z,0.70
2022-09-24T03:51:11.745Z,0.47
2022-09-24T03:53:38.876Z,0.70
2022-09-24T03:56:06.674Z,0.80
2022-09-24T03:58:37.783Z,0.70
2022-09-24T04:01:14.048Z,0.30
2022-09-24T04:03:41.013Z,0.87
2022-09-24T04:06:08.139Z,1.43
2022-09-24T04:08:34.524Z,0.93
2022-09-24T04:11:00.990Z,1.73
2022-09-24T04:13:27.375Z,0.97
2022-09-24T04:15:54.910Z,1.90
2022-09-24T04:18:22.142Z,1.07
2022-09-24T04:20:48.585Z,1.33
2022-09-24T04:23:15.439Z,1.70
2022-09-24T04:25:41.994Z,1.90
2022-09-24T04:28:10.029Z,1.73
2022-09-24T04:30:37.044Z,1.47
2022-09-24T04:33:03.588Z,0.80
2022-09-24T04:35:32.199Z,0.70
2022-09-24T04:37:59.481Z,0.70
2022-09-24T04:40:27.038Z,0.90
2022-09-24T04:42:53.810Z,1.10
2022-09-24T04:45:20.997Z,0.90
2022-09-24T04:47:53.434Z,1.70
2022-09-24T04:50:20.757Z,1.53
2022-09-24T04:52:47.297Z,0.93
2022-09-24T04:55:14.721Z,0.80
2022-09-24T04:57:41.302Z,1.07
2022-09-24T05:00:11.426Z,1.03
2022-09-24T05:02:37.954Z,0.80
2022-09-24T05:05:04.673Z,2.40
2022-09-24T05:07:31.045Z,0.97
2022-09-24T05:10:02.122Z,1.13
2022-09-24T05:12:28.513Z,1.20
2022-09-24T05:14:54.886Z,1.37
2022-09-24T05:17:21.454Z,1.10
2022-09-24T05:19:47.782Z,2.20
2022-09-24T05:22:14.152Z,1.20
2022-09-24T05:24:40.503Z,1.20
2022-09-24T05:27:10.243Z,1.10
2022-09-24T05:29:41.227Z,1.23
2022-09-24T05:32:12.162Z,0.70
2022-09-24T05:34:38.531Z,1.20
2022-09-24T05:37:04.974Z,1.43
2022-09-24T05:39:33.932Z,0.90
2022-09-24T05:42:03.624Z,1.47
2022-09-24T05:44:31.119Z,1.43
2022-09-24T05:46:58.233Z,0.90
2022-09-24T05:49:25.169Z,1.13
2022-09-24T05:51:52.035Z,1.23
2022-09-24T05:54:19.098Z,0.90
2022-09-24T05:56:45.861Z,0.90
2022-09-24T05:59:12.961Z,1.37
2022-09-24T06:01:39.590Z,0.87
2022-09-24T06:04:08.896Z,1.30
2022-09-24T06:06:35.844Z,1.27
2022-09-24T06:09:02.283Z,1.00
2022-09-24T06:11:29.540Z,1.73
2022-09-24T06:13:55.877Z,2.07
2022-09-24T06:16:22.281Z,0.80
2022-09-24T06:18:48.730Z,1.00
2022-09-24T06:21:17.665Z,1.37
2022-09-24T06:23:45.361Z,1.10
2022-09-24T06:26:13.323Z,0.83
2022-09-24T06:28:40.287Z,1.00
2022-09-24T06:31:07.967Z,1.43
2022-09-24T06:33:34.516Z,1.50
2022-09-24T06:36:02.590Z,1.33
2022-09-24T06:38:29.460Z,1.97
2022-09-24T06:41:04.588Z,1.10
2022-09-24T06:43:32.316Z,1.90
2022-09-24T06:46:00.131Z,1.90
2022-09-24T06:48:27.852Z,1.30
2022-09-24T06:50:56.143Z,1.10
2022-09-24T06:53:23.043Z,1.57
2022-09-24T06:55:49.422Z,1.90
2022-09-24T06:58:19.920Z,1.37
2022-09-24T07:00:58.842Z,1.50
2022-09-24T07:03:29.988Z,1.03
2022-09-24T07:06:00.394Z,2.27
2022-09-24T07:08:26.859Z,2.17
2022-09-24T07:10:53.865Z,1.97
2022-09-24T07:13:23.676Z,2.40
2022-09-24T07:15:51.519Z,2.57
2022-09-24T07:18:19.005Z,1.27
2022-09-24T07:20:51.764Z,1.60
2022-09-24T07:23:18.455Z,1.10
2022-09-24T07:25:45.204Z,2.20
2022-09-24T07:28:13.517Z,1.77
2022-09-24T07:30:40.333Z,3.30
2022-09-24T07:33:07.654Z,1.43
2022-09-24T07:35:36.711Z,1.77
2022-09-24T07:38:06.208Z,3.57
2022-09-24T07:40:32.978Z,2.17
2022-09-24T07:43:00.594Z,2.37
2022-09-24T07:45:29.504Z,2.30
2022-09-24T07:48:05.031Z,2.53
2022-09-24T07:50:34.247Z,3.63
2022-09-24T07:53:00.863Z,1.33
2022-09-24T07:55:27.323Z,1.53
2022-09-24T07:57:55.018Z,1.60
2022-09-24T08:00:23.324Z,1.50
2022-09-24T08:02:50.403Z,2.50
2022-09-24T08:05:17.935Z,1.33
2022-09-24T08:07:51.935Z,1.80
2022-09-24T08:10:18.580Z,2.97
2022-09-24T08:12:44.953Z,2.90
2022-09-24T08:15:11.408Z,1.27
2022-09-24T08:17:37.774Z,1.40
2022-09-24T08:20:04.470Z,2.70
2022-09-24T08:22:31.346Z,1.87
2022-09-24T08:24:57.872Z,1.87
2022-09-24T08:27:25.135Z,1.30
2022-09-24T08:29:52.354Z,2.00
2022-09-24T08:32:18.750Z,1.20
2022-09-24T08:34:45.320Z,2.67
2022-09-24T08:37:12.152Z,1.93
2022-09-24T08:39:38.565Z,0.90
2022-09-24T08:42:11.107Z,1.07
2022-09-24T08:45:05.071Z,1.37
2022-09-24T08:47:50.044Z,1.63
2022-09-24T08:50:22.967Z,2.17
2022-09-24T08:53:15.150Z,2.60
2022-09-24T08:55:45.637Z,2.20
2022-09-24T08:58:17.726Z,1.53
2022-09-24T09:00:54.292Z,1.67
2022-09-24T09:03:49.299Z,1.30
2022-09-24T09:06:40.322Z,1.60
2022-09-24T09:09:16.134Z,1.50
2022-09-24T09:11:47.381Z,1.80
2022-09-24T09:14:28.078Z,1.57
2022-09-24T09:17:02.275Z,2.13
2022-09-24T09:19:34.644Z,1.60
2022-09-24T09:22:07.270Z,1.47
2022-09-24T09:24:46.297Z,1.60
2022-09-24T09:27:14.812Z,1.10
2022-09-24T09:29:43.467Z,1.50
2022-09-24T09:32:28.572Z,1.10
2022-09-24T09:35:06.338Z,1.60
2022-09-24T09:37:53.357Z,2.07
2022-09-24T09:40:48.229Z,2.27
2022-09-24T09:43:15.139Z,1.80
2022-09-24T09:46:13.599Z,2.40
2022-09-24T09:48:52.049Z,1.23
2022-09-24T09:51:22.740Z,1.50
2022-09-24T09:53:55.278Z,1.60
2022-09-24T09:56:25.751Z,1.43
2022-09-24T09:59:00.872Z,1.53
2022-09-24T10:01:35.998Z,1.80
2022-09-24T10:04:04.490Z,1.33
2022-09-24T10:06:33.988Z,2.47
2022-09-24T10:09:21.544Z,1.70
2022-09-24T10:11:48.585Z,1.17
2022-09-24T10:14:18.146Z,1.57
2022-09-24T10:16:47.604Z,1.73
2022-09-24T10:19:22.099Z,1.70
2022-09-24T10:21:50.549Z,1.50
2022-09-24T10:24:25.150Z,3.40
2022-09-24T10:26:51.938Z,2.67
2022-09-24T10:29:48.736Z,2.90
2022-09-24T10:32:18.634Z,3.63
2022-09-24T10:35:02.177Z,3.13
2022-09-24T10:37:29.433Z,2.30
2022-09-24T10:40:15.492Z,2.60
2022-09-24T10:42:42.035Z,2.47
2022-09-24T10:45:16.695Z,2.23
2022-09-24T10:48:09.180Z,2.47
2022-09-24T10:50:48.412Z,2.67
2022-09-24T10:53:19.235Z,2.77
2022-09-24T10:56:16.310Z,2.70
2022-09-24T10:59:00.542Z,3.60
2022-09-24T11:02:03.790Z,2.40
2022-09-24T11:04:31.158Z,1.67
2022-09-24T11:07:29.135Z,2.23
2022-09-24T11:10:20.408Z,2.03
2022-09-24T11:13:12.469Z,3.13
2022-09-24T11:15:44.632Z,2.50
2022-09-24T11:18:41.957Z,3.00
2022-09-24T11:21:30.046Z,2.13
2022-09-24T11:24:18.256Z,1.93
2022-09-24T11:27:09.367Z,3.67
2022-09-24T11:29:54.688Z,1.67
2022-09-24T11:32:55.223Z,3.27
2022-09-24T11:35:21.600Z,2.37
2022-09-24T11:37:55.691Z,2.10
2022-09-24T11:41:01.134Z,3.30
2022-09-24T11:43:43.110Z,2.90
2022-09-24T11:46:47.196Z,3.97
2022-09-24T11:49:28.476Z,2.47
2022-09-24T11:52:23.795Z,2.50
2022-09-24T11:55:02.321Z,2.20
2022-09-24T11:57:33.189Z,3.60
2022-09-24T12:00:08.267Z,2.37
2022-09-24T12:02:44.373Z,2.97
2022-09-24T12:05:49.633Z,2.30
2022-09-24T12:08:29.129Z,2.27
2022-09-24T12:11:08.896Z,2.93
2022-09-24T12:13:46.910Z,1.93
2022-09-24T12:16:21.795Z,2.97
2022-09-24T12:19:25.611Z,2.23
2022-09-24T12:21:53.547Z,3.43
2022-09-24T12:24:32.999Z,2.70
2022-09-24T12:27:04.022Z,2.97
2022-09-24T12:29:57.806Z,2.30
2022-09-24T12:33:01.321Z,3.23
2022-09-24T12:35:33.568Z,1.97
2022-09-24T12:38:23.644Z,1.73
2022-09-24T12:41:18.734Z,3.60
2022-09-24T12:43:55.419Z,3.07
2022-09-24T12:46:27.254Z,2.00
2022-09-24T12:48:54.741Z,2.93
2022-09-24T12:51:22.631Z,1.50
2022-09-24T12:53:58.442Z,2.53
2022-09-24T12:56:29.709Z,1.60
2022-09-24T12:58:57.119Z,2.87
2022-09-24T13:01:23.947Z,2.93
2022-09-24T13:04:26.854Z,2.07
2022-09-24T13:06:54.085Z,2.07
2022-09-24T13:09:38.676Z,2.57
2022-09-24T13:12:20.879Z,2.30
2022-09-24T13:15:02.513Z,2.70
2022-09-24T13:17:32.881Z,2.90
2022-09-24T13:20:05.319Z,2.23
2022-09-24T13:22:34.894Z,2.87
2022-09-24T13:25:07.423Z,2.57
2022-09-24T13:27:38.838Z,2.57
2022-09-24T13:30:05.200Z,3.23
2022-09-24T13:32:36.876Z,2.70
2022-09-24T13:35:07.482Z,2.70
2022-09-24T13:37:39.159Z,2.00
2022-09-24T13:40:25.924Z,1.80
2022-09-24T13:43:15.956Z,2.47
2022-09-24T13:45:45.176Z,2.17
2022-09-24T13:48:30.315Z,2.77
2022-09-24T13:50:56.826Z,3.37
2022-09-24T13:53:40.059Z,3.30
2022-09-24T13:56:14.019Z,3.20
2022-09-24T13:58:41.842Z,3.17
2022-09-24T14:01:21.096Z,2.07
2022-09-24T14:04:00.257Z,2.30
2022-09-24T14:06:43.385Z,2.67
2022-09-24T14:09:22.981Z,2.63
2022-09-24T14:11:52.232Z,1.77
2022-09-24T14:14:21.100Z,2.20
2022-09-24T14:16:47.480Z,2.50
2022-09-24T14:19:15.628Z,2.10
2022-09-24T14:21:45.561Z,2.60
2022-09-24T14:24:22.672Z,2.80
2022-09-24T14:27:00.376Z,2.63
2022-09-24T14:29:47.672Z,3.27
2022-09-24T14:32:20.652Z,2.70
2022-09-24T14:34:55.931Z,3.63
2022-09-24T14:37:32.822Z,3.90
2022-09-24T14:40:04.501Z,2.80
2022-09-24T14:42:39.961Z,1.87
2022-09-24T14:45:10.164Z,1.80
2022-09-24T14:47:37.332Z,1.43
2022-09-24T14:50:05.319Z,1.43
2022-09-24T14:52:37.783Z,2.43
2022-09-24T14:55:18.253Z,4.23
2022-09-24T14:57:49.040Z,2.07
2022-09-24T15:00:22.740Z,2.43
2022-09-24T15:02:55.844Z,1.33
2022-09-24T15:05:27.670Z,2.30
2022-09-24T15:08:12.704Z,2.17
2022-09-24T15:10:39.903Z,1.50
2022-09-24T15:13:15.026Z,1.90
2022-09-24T15:15:41.790Z,1.40
2022-09-24T15:18:10.890Z,2.10
2022-09-24T15:20:38.131Z,2.20
2022-09-24T15:23:04.516Z,2.13
2022-09-24T15:25:30.908Z,1.60
2022-09-24T15:27:57.582Z,1.23
2022-09-24T15:30:24.318Z,1.73
2022-09-24T15:32:51.109Z,1.63
2022-09-24T15:35:17.676Z,1.87
2022-09-24T15:37:44.901Z,2.20
2022-09-24T15:40:25.925Z,1.33
2022-09-24T15:42:52.934Z,1.60
2022-09-24T15:45:21.627Z,1.50
2022-09-24T15:47:50.099Z,2.50
2022-09-24T15:50:17.170Z,1.57
2022-09-24T15:52:50.423Z,1.33
2022-09-24T15:55:19.800Z,3.30
2022-09-24T15:57:46.828Z,2.50
2022-09-24T16:00:15.431Z,1.80
2022-09-24T16:02:44.773Z,1.70
2022-09-24T16:05:13.488Z,2.07
2022-09-24T16:07:39.866Z,2.00
2022-09-24T16:10:06.984Z,1.87
2022-09-24T16:12:33.468Z,2.10
2022-09-24T16:15:00.606Z,2.30
2022-09-24T16:17:28.315Z,2.37
2022-09-24T16:19:54.754Z,2.47
2022-09-24T16:22:21.354Z,2.10
2022-09-24T16:24:48.142Z,1.33
2022-09-24T16:27:14.707Z,1.00
2022-09-24T16:29:41.074Z,0.87
2022-09-24T16:32:07.440Z,1.03
2022-09-24T16:34:34.494Z,0.97
2022-09-24T16:37:00.912Z,0.70
2022-09-24T16:39:27.285Z,0.50
2022-09-24T16:41:54.684Z,0.57
2022-09-24T16:44:21.147Z,0.60
2022-09-24T16:46:47.566Z,0.90
2022-09-24T16:49:14.027Z,0.53
2022-09-24T16:51:40.442Z,0.70
2022-09-24T16:54:06.883Z,0.73
2022-09-24T16:56:33.322Z,0.73
2022-09-24T16:58:59.840Z,0.60
2022-09-24T17:01:26.307Z,0.47
2022-09-24T17:03:57.690Z,0.90
2022-09-24T17:06:26.508Z,1.30
2022-09-24T17:09:11.788Z,1.10
2022-09-24T17:11:40.120Z,1.30
2022-09-24T17:14:07.273Z,1.83
2022-09-24T17:16:34.761Z,1.60
2022-09-24T17:19:01.623Z,1.00
2022-09-24T17:21:28.407Z,0.70
2022-09-24T17:23:54.808Z,1.00
2022-09-24T17:26:22.704Z,1.83
2022-09-24T17:28:52.461Z,1.30
2022-09-24T17:31:22.163Z,1.73
2022-09-24T17:33:57.607Z,2.13
2022-09-24T17:36:25.720Z,1.57
2022-09-24T17:38:52.257Z,1.63
2022-09-24T17:41:19.016Z,1.13
2022-09-24T17:43:45.401Z,1.77
2022-09-24T17:46:17.114Z,1.37
2022-09-24T17:48:45.551Z,1.57
2022-09-24T17:51:14.999Z,2.37
2022-09-24T17:53:41.843Z,1.40
2022-09-24T17:56:11.759Z,1.37
2022-09-24T17:58:40.521Z,1.00
2022-09-24T18:01:10.035Z,2.20
2022-09-24T18:03:37.095Z,0.83
2022-09-24T18:06:05.701Z,1.03
2022-09-24T18:08:35.363Z,1.20
2022-09-24T18:11:03.742Z,0.80
2022-09-24T18:13:34.302Z,0.80
2022-09-24T18:16:09.985Z,1.57
2022-09-24T18:18:37.155Z,1.63
2022-09-24T18:21:05.875Z,0.90
2022-09-24T18:23:34.898Z,1.63
2022-09-24T18:26:22.103Z,1.73
2022-09-24T18:28:54.043Z,1.00
2022-09-24T18:31:22.116Z,1.53
2022-09-24T18:33:50.318Z,1.53
2022-09-24T18:36:19.011Z,0.77
2022-09-24T18:38:45.830Z,1.30
2022-09-24T18:41:32.583Z,1.43
2022-09-24T18:43:59.865Z,2.13
2022-09-24T18:46:29.004Z,1.87
2022-09-24T18:48:57.031Z,1.03
2022-09-24T18:51:26.362Z,1.40
2022-09-24T18:53:58.157Z,1.20
2022-09-24T18:56:25.682Z,1.97
2022-09-24T18:58:59.024Z,2.57
2022-09-24T19:01:27.035Z,2.20
2022-09-24T19:03:54.877Z,1.53
2022-09-24T19:06:22.124Z,1.40
2022-09-24T19:08:49.069Z,1.40
2022-09-24T19:11:17.422Z,1.60
2022-09-24T19:13:48.910Z,1.87
2022-09-24T19:16:16.854Z,1.57
2022-09-24T19:18:43.275Z,1.87
2022-09-24T19:21:11.996Z,2.30
2022-09-24T19:23:41.289Z,1.70
2022-09-24T19:26:09.504Z,2.13
2022-09-24T19:28:38.989Z,1.97
2022-09-24T19:31:07.101Z,1.37
2022-09-24T19:33:33.578Z,0.90
2022-09-24T19:36:02.769Z,1.27
2022-09-24T19:38:31.617Z,2.23
2022-09-24T19:41:03.438Z,1.93
2022-09-24T19:43:33.478Z,2.20
2022-09-24T19:46:02.751Z,2.10
2022-09-24T19:48:30.599Z,2.73
2022-09-24T19:51:02.114Z,2.13
2022-09-24T19:53:29.443Z,2.07
2022-09-24T19:55:56.410Z,1.73
2022-09-24T19:58:22.805Z,1.77
2022-09-24T20:00:49.161Z,2.00
2022-09-24T20:03:17.305Z,2.20
2022-09-24T20:05:44.444Z,2.63
2022-09-24T20:08:14.675Z,2.47
2022-09-24T20:10:46.354Z,2.20
2022-09-24T20:13:12.949Z,2.27
2022-09-24T20:15:41.338Z,2.43
2022-09-24T20:18:11.666Z,3.00
2022-09-24T20:20:42.014Z,1.90
2022-09-24T20:23:08.566Z,1.77
2022-09-24T20:25:53.874Z,2.73
2022-09-24T20:28:20.237Z,1.53
2022-09-24T20:30:46.936Z,1.77
2022-09-24T20:33:13.539Z,1.50
2022-09-24T20:35:43.866Z,2.47
2022-09-24T20:38:10.326Z,2.80
2022-09-24T20:40:40.755Z,2.70
2022-09-24T20:43:07.147Z,1.60
2022-09-24T20:45:33.476Z,2.77
2022-09-24T20:48:00.463Z,2.53
2022-09-24T20:50:26.904Z,2.40
2022-09-24T20:52:53.344Z,3.70
2022-09-24T20:55:19.713Z,3.50
2022-09-24T20:57:46.141Z,1.20
2022-09-24T21:00:14.755Z,3.60
2022-09-24T21:02:41.925Z,2.20
2022-09-24T21:05:10.014Z,3.13
2022-09-24T21:07:40.215Z,1.93
2022-09-24T21:10:09.510Z,2.77
2022-09-24T21:12:37.394Z,2.30
2022-09-24T21:15:06.414Z,3.13
2022-09-24T21:17:33.383Z,3.53
2022-09-24T21:19:59.878Z,2.73
2022-09-24T21:22:26.959Z,1.80
2022-09-24T21:24:53.520Z,2.97
2022-09-24T21:27:19.955Z,2.40
2022-09-24T21:29:47.283Z,2.50
2022-09-24T21:32:16.648Z,2.60
2022-09-24T21:34:44.099Z,1.30
2022-09-24T21:37:14.458Z,2.60
2022-09-24T21:39:42.452Z,2.70
2022-09-24T21:42:09.210Z,2.13
2022-09-24T21:44:35.763Z,1.27
2022-09-24T21:47:02.857Z,2.53
2022-09-24T21:49:30.205Z,2.30
2022-09-24T21:51:57.590Z,3.70
2022-09-24T21:54:23.953Z,2.20
2022-09-24T21:56:50.517Z,2.17
2022-09-24T21:59:35.411Z,2.13
2022-09-24T22:02:02.700Z,2.40
2022-09-24T22:04:32.107Z,2.60
2022-09-24T22:06:58.926Z,1.90
2022-09-24T22:09:26.722Z,1.67
2022-09-24T22:11:55.754Z,2.20
2022-09-24T22:14:23.012Z,2.80
2022-09-24T22:16:49.389Z,2.17
2022-09-24T22:19:15.785Z,1.80
2022-09-24T22:21:42.169Z,1.40
2022-09-24T22:24:08.560Z,1.90
2022-09-24T22:26:35.094Z,2.60
2022-09-24T22:29:03.891Z,2.67
2022-09-24T22:31:30.677Z,2.13
2022-09-24T22:34:15.578Z,1.90
2022-09-24T22:36:41.940Z,2.30
2022-09-24T22:39:08.709Z,1.57
2022-09-24T22:41:39.737Z,2.40
2022-09-24T22:44:07.535Z,2.23
2022-09-24T22:46:36.115Z,3.40
2022-09-24T22:49:04.971Z,1.93
2022-09-24T22:51:32.003Z,3.27
2022-09-24T22:54:00.044Z,2.37
2022-09-24T22:56:27.583Z,3.17
2022-09-24T22:58:56.085Z,1.57
2022-09-24T23:01:28.181Z,2.37
2022-09-24T23:03:56.274Z,2.57
2022-09-24T23:06:23.922Z,2.97
2022-09-24T23:08:52.614Z,2.73
2022-09-24T23:11:29.823Z,2.60
2022-09-24T23:14:02.513Z,2.70
2022-09-24T23:16:31.184Z,3.73
2022-09-24T23:18:59.317Z,3.47
2022-09-24T23:21:28.355Z,3.07
2022-09-24T23:23:56.454Z,3.10
2022-09-24T23:26:24.699Z,2.10
2022-09-24T23:28:52.956Z,3.27
2022-09-24T23:31:22.551Z,2.63
2022-09-24T23:33:49.855Z,2.03
2022-09-24T23:36:16.663Z,2.70
2022-09-24T23:38:43.979Z,2.60
2022-09-24T23:41:12.360Z,2.27
2022-09-24T23:43:39.180Z,4.07
2022-09-24T23:46:05.852Z,1.23
2022-09-24T23:48:32.569Z,3.83
2022-09-24T23:50:59.649Z,2.77
2022-09-24T23:53:26.759Z,2.87
2022-09-24T23:55:55.327Z,2.93
2022-09-24T23:58:23.196Z,3.03
